sensor_id;sensor_type;location;lat;lon;timestamp;pressure;altitude;pressure_sealevel;temperature;humidity
76108;BME280;64834;52.516;10.528;2024-03-23T00:55:49;100160.63;;;6.84;100.00
76108;BME280;64834;52.516;10.528;2024-03-23T00:58:15;100168.84;;;6.76;100.00
76108;BME280;64834;52.516;10.528;2024-03-23T01:00:40;100159.53;;;6.80;100.00
76108;BME280;64834;52.516;10.528;2024-03-23T01:03:05;100148.63;;;6.86;100.00
76108;BME280;64834;52.516;10.528;2024-03-23T01:05:31;100142.31;;;6.82;100.00
76108;BME280;64834;52.516;10.528;2024-03-23T01:07:56;100141.50;;;6.83;100.00
76108;BME280;64834;52.516;10.528;2024-03-23T01:10:21;100140.31;;;6.78;100.00
76108;BME280;64834;52.516;10.528;2024-03-23T01:12:47;100124.56;;;6.75;100.00
76108;BME280;64834;52.516;10.528;2024-03-23T01:15:12;100124.47;;;6.73;100.00
76108;BME280;64834;52.516;10.528;2024-03-23T01:17:37;100127.28;;;6.63;100.00
76108;BME280;64834;52.516;10.528;2024-03-23T01:20:03;100119.41;;;6.62;100.00
76108;BME280;64834;52.516;10.528;2024-03-23T01:22:29;100125.00;;;6.68;100.00
76108;BME280;64834;52.516;10.528;2024-03-23T01:24:54;100130.88;;;6.65;100.00
76108;BME280;64834;52.516;10.528;2024-03-23T01:27:19;100117.09;;;6.66;100.00
76108;BME280;64834;52.516;10.528;2024-03-23T01:29:45;100123.72;;;6.61;100.00
76108;BME280;64834;52.516;10.528;2024-03-23T01:32:10;100118.59;;;6.63;100.00
76108;BME280;64834;52.516;10.528;2024-03-23T01:34:35;100117.09;;;6.66;100.00
76108;BME280;64834;52.516;10.528;2024-03-23T01:37:01;100113.31;;;6.61;100.00
76108;BME280;64834;52.516;10.528;2024-03-23T01:39:26;100118.50;;;6.61;100.00
76108;BME280;64834;52.516;10.528;2024-03-23T01:41:52;100109.09;;;6.63;100.00
76108;BME280;64834;52.516;10.528;2024-03-23T01:44:17;100095.50;;;6.67;100.00
76108;BME280;64834;52.516;10.528;2024-03-23T01:46:43;100099.25;;;6.72;100.00
76108;BME280;64834;52.516;10.528;2024-03-23T01:49:09;100092.91;;;6.67;100.00
76108;BME280;64834;52.516;10.528;2024-03-23T01:51:35;100093.31;;;6.60;100.00
76108;BME280;64834;52.516;10.528;2024-03-23T01:54:04;100090.66;;;6.45;100.00
76108;BME280;64834;52.516;10.528;2024-03-23T01:56:34;100083.72;;;6.59;100.00
76108;BME280;64834;52.516;10.528;2024-03-23T01:59:01;100084.72;;;6.61;100.00
76108;BME280;64834;52.516;10.528;2024-03-23T02:01:26;100075.66;;;6.55;100.00
76108;BME280;64834;52.516;10.528;2024-03-23T02:03:51;100073.06;;;6.55;100.00
76108;BME280;64834;52.516;10.528;2024-03-23T02:06:17;100068.53;;;6.52;100.00
76108;BME280;64834;52.516;10.528;2024-03-23T02:08:43;100066.28;;;6.43;100.00
76108;BME280;64834;52.516;10.528;2024-03-23T02:11:09;100069.56;;;6.41;100.00
76108;BME280;64834;52.516;10.528;2024-03-23T02:13:34;100069.41;;;6.38;100.00
76108;BME280;64834;52.516;10.528;2024-03-23T02:15:59;100067.63;;;6.37;100.00
76108;BME280;64834;52.516;10.528;2024-03-23T02:18:25;100061.41;;;6.35;100.00
76108;BME280;64834;52.516;10.528;2024-03-23T02:20:50;100059.00;;;6.38;100.00
76108;BME280;64834;52.516;10.528;2024-03-23T02:23:16;100054.72;;;6.38;100.00
76108;BME280;64834;52.516;10.528;2024-03-23T02:25:43;100052.84;;;6.36;100.00
76108;BME280;64834;52.516;10.528;2024-03-23T02:28:08;100053.59;;;6.35;100.00
76108;BME280;64834;52.516;10.528;2024-03-23T02:30:34;100049.41;;;6.37;100.00
76108;BME280;64834;52.516;10.528;2024-03-23T02:32:59;100053.22;;;6.42;100.00
76108;BME280;64834;52.516;10.528;2024-03-23T02:35:24;100050.22;;;6.36;100.00
76108;BME280;64834;52.516;10.528;2024-03-23T02:37:50;100046.81;;;6.37;100.00
76108;BME280;64834;52.516;10.528;2024-03-23T02:40:16;100033.44;;;6.31;100.00
76108;BME280;64834;52.516;10.528;2024-03-23T02:42:41;100036.75;;;6.28;100.00
76108;BME280;64834;52.516;10.528;2024-03-23T02:45:07;100025.44;;;6.28;100.00
76108;BME280;64834;52.516;10.528;2024-03-23T02:47:33;100019.09;;;6.22;100.00
76108;BME280;64834;52.516;10.528;2024-03-23T02:49:58;100019.09;;;6.22;100.00
76108;BME280;64834;52.516;10.528;2024-03-23T02:52:23;100012.09;;;6.21;100.00
76108;BME280;64834;52.516;10.528;2024-03-23T02:54:49;100005.09;;;6.20;100.00
76108;BME280;64834;52.516;10.528;2024-03-23T02:57:14;100008.50;;;6.19;100.00
76108;BME280;64834;52.516;10.528;2024-03-23T02:59:39;100003.91;;;6.15;100.00
76108;BME280;64834;52.516;10.528;2024-03-23T03:02:05;99997.66;;;6.12;100.00
76108;BME280;64834;52.516;10.528;2024-03-23T03:04:31;99991.13;;;6.18;100.00
76108;BME280;64834;52.516;10.528;2024-03-23T03:06:56;99992.53;;;6.13;100.00
76108;BME280;64834;52.516;10.528;2024-03-23T03:09:22;99998.84;;;6.17;100.00
76108;BME280;64834;52.516;10.528;2024-03-23T03:11:47;99989.34;;;6.17;100.00
76108;BME280;64834;52.516;10.528;2024-03-23T03:14:12;99988.31;;;6.15;100.00
76108;BME280;64834;52.516;10.528;2024-03-23T03:16:38;99981.16;;;6.11;100.00
76108;BME280;64834;52.516;10.528;2024-03-23T03:19:03;99985.28;;;6.08;100.00
76108;BME280;64834;52.516;10.528;2024-03-23T03:21:28;99980.88;;;6.07;100.00
76108;BME280;64834;52.516;10.528;2024-03-23T03:23:54;99984.88;;;6.02;100.00
76108;BME280;64834;52.516;10.528;2024-03-23T03:26:21;99976.59;;;6.07;100.00
76108;BME280;64834;52.516;10.528;2024-03-23T03:28:46;99986.88;;;6.06;100.00
76108;BME280;64834;52.516;10.528;2024-03-23T03:31:17;99983.41;;;6.05;100.00
76108;BME280;64834;52.516;10.528;2024-03-23T03:33:43;99977.81;;;5.99;100.00
76108;BME280;64834;52.516;10.528;2024-03-23T03:36:08;99971.91;;;6.02;100.00
76108;BME280;64834;52.516;10.528;2024-03-23T03:38:34;99972.19;;;6.06;100.00
76108;BME280;64834;52.516;10.528;2024-03-23T03:41:03;99977.00;;;6.00;100.00
76108;BME280;64834;52.516;10.528;2024-03-23T03:43:28;99976.28;;;6.03;100.00
76108;BME280;64834;52.516;10.528;2024-03-23T03:45:56;99981.22;;;5.98;100.00
76108;BME280;64834;52.516;10.528;2024-03-23T03:48:21;99982.38;;;6.03;100.00
76108;BME280;64834;52.516;10.528;2024-03-23T03:50:47;99975.81;;;5.95;100.00
76108;BME280;64834;52.516;10.528;2024-03-23T03:53:12;99962.31;;;6.01;100.00
76108;BME280;64834;52.516;10.528;2024-03-23T03:55:37;99962.94;;;5.97;100.00
76108;BME280;64834;52.516;10.528;2024-03-23T03:58:03;99962.75;;;5.93;100.00
76108;BME280;64834;52.516;10.528;2024-03-23T04:00:29;99974.13;;;5.95;100.00
76108;BME280;64834;52.516;10.528;2024-03-23T04:02:55;99961.44;;;5.87;100.00
76108;BME280;64834;52.516;10.528;2024-03-23T04:05:20;99966.63;;;5.87;100.00
76108;BME280;64834;52.516;10.528;2024-03-23T04:07:46;99970.84;;;5.85;100.00
76108;BME280;64834;52.516;10.528;2024-03-23T04:10:11;99969.53;;;5.78;100.00
76108;BME280;64834;52.516;10.528;2024-03-23T04:12:37;99967.31;;;5.84;100.00
76108;BME280;64834;52.516;10.528;2024-03-23T04:15:03;99956.75;;;5.81;100.00
76108;BME280;64834;52.516;10.528;2024-03-23T04:17:30;99964.47;;;5.80;100.00
76108;BME280;64834;52.516;10.528;2024-03-23T04:19:57;99962.47;;;5.76;100.00
76108;BME280;64834;52.516;10.528;2024-03-23T04:22:23;99957.47;;;5.79;100.00
76108;BME280;64834;52.516;10.528;2024-03-23T04:24:51;99955.66;;;5.78;100.00
76108;BME280;64834;52.516;10.528;2024-03-23T04:27:16;99947.88;;;5.78;100.00
76108;BME280;64834;52.516;10.528;2024-03-23T04:29:42;99943.91;;;5.69;100.00
76108;BME280;64834;52.516;10.528;2024-03-23T04:32:07;99950.81;;;5.69;100.00
76108;BME280;64834;52.516;10.528;2024-03-23T04:34:33;99945.81;;;5.72;100.00
76108;BME280;64834;52.516;10.528;2024-03-23T04:36:58;99946.34;;;5.66;100.00
76108;BME280;64834;52.516;10.528;2024-03-23T04:39:24;99943.94;;;5.56;100.00
76108;BME280;64834;52.516;10.528;2024-03-23T04:41:49;99944.75;;;5.55;100.00
76108;BME280;64834;52.516;10.528;2024-03-23T04:44:15;99936.97;;;5.55;100.00
76108;BME280;64834;52.516;10.528;2024-03-23T04:46:40;99945.16;;;5.48;100.00
76108;BME280;64834;52.516;10.528;2024-03-23T04:49:05;99944.78;;;5.42;100.00
76108;BME280;64834;52.516;10.528;2024-03-23T04:51:38;99942.38;;;5.32;100.00
76108;BME280;64834;52.516;10.528;2024-03-23T04:54:03;99933.41;;;5.27;100.00
76108;BME280;64834;52.516;10.528;2024-03-23T04:56:29;99936.22;;;5.17;100.00
76108;BME280;64834;52.516;10.528;2024-03-23T04:58:56;99933.31;;;5.12;100.00
76108;BME280;64834;52.516;10.528;2024-03-23T05:01:26;99933.00;;;5.21;100.00
76108;BME280;64834;52.516;10.528;2024-03-23T05:03:51;99924.06;;;5.16;100.00
76108;BME280;64834;52.516;10.528;2024-03-23T05:06:16;99921.47;;;5.16;100.00
76108;BME280;64834;52.516;10.528;2024-03-23T05:08:42;99920.34;;;5.25;100.00
76108;BME280;64834;52.516;10.528;2024-03-23T05:11:07;99912.56;;;5.25;100.00
76108;BME280;64834;52.516;10.528;2024-03-23T05:13:32;99921.25;;;5.26;100.00
76108;BME280;64834;52.516;10.528;2024-03-23T05:15:58;99909.97;;;5.25;100.00
76108;BME280;64834;52.516;10.528;2024-03-23T05:18:24;99915.88;;;5.23;100.00
76108;BME280;64834;52.516;10.528;2024-03-23T05:20:55;99912.97;;;5.18;100.00
76108;BME280;64834;52.516;10.528;2024-03-23T05:23:21;99905.91;;;5.16;100.00
76108;BME280;64834;52.516;10.528;2024-03-23T05:25:46;99907.59;;;5.15;100.00
76108;BME280;64834;52.516;10.528;2024-03-23T05:28:12;99905.53;;;5.09;100.00
76108;BME280;64834;52.516;10.528;2024-03-23T05:30:38;99907.09;;;5.07;100.00
76108;BME280;64834;52.516;10.528;2024-03-23T05:33:03;99910.19;;;5.02;100.00
76108;BME280;64834;52.516;10.528;2024-03-23T05:35:29;99908.50;;;5.29;100.00
76108;BME280;64834;52.516;10.528;2024-03-23T05:37:54;99909.78;;;5.35;100.00
76108;BME280;64834;52.516;10.528;2024-03-23T05:40:19;99899.66;;;5.40;100.00
76108;BME280;64834;52.516;10.528;2024-03-23T05:42:44;99904.28;;;5.31;100.00
76108;BME280;64834;52.516;10.528;2024-03-23T05:45:10;99897.00;;;5.25;100.00
76108;BME280;64834;52.516;10.528;2024-03-23T05:47:36;99898.88;;;5.28;100.00
76108;BME280;64834;52.516;10.528;2024-03-23T05:50:01;99891.69;;;5.37;100.00
76108;BME280;64834;52.516;10.528;2024-03-23T05:52:27;99904.84;;;5.40;100.00
76108;BME280;64834;52.516;10.528;2024-03-23T05:54:53;99902.47;;;5.43;100.00
76108;BME280;64834;52.516;10.528;2024-03-23T05:57:18;99904.16;;;5.43;100.00
76108;BME280;64834;52.516;10.528;2024-03-23T05:59:44;99902.16;;;5.38;100.00
76108;BME280;64834;52.516;10.528;2024-03-23T06:02:10;99907.56;;;5.41;100.00
76108;BME280;64834;52.516;10.528;2024-03-23T06:04:35;99915.84;;;5.36;100.00
76108;BME280;64834;52.516;10.528;2024-03-23T06:07:01;99912.56;;;5.25;100.00
76108;BME280;64834;52.516;10.528;2024-03-23T06:09:26;99915.66;;;5.20;100.00
76108;BME280;64834;52.516;10.528;2024-03-23T06:11:51;99912.06;;;5.31;100.00
76108;BME280;64834;52.516;10.528;2024-03-23T06:14:17;99908.38;;;5.27;100.00
76108;BME280;64834;52.516;10.528;2024-03-23T06:16:42;99903.91;;;5.11;100.00
76108;BME280;64834;52.516;10.528;2024-03-23T06:19:07;99889.44;;;5.15;100.00
76108;BME280;64834;52.516;10.528;2024-03-23T06:21:33;99886.25;;;5.19;100.00
76108;BME280;64834;52.516;10.528;2024-03-23T06:23:58;99889.03;;;5.22;100.00
76108;BME280;64834;52.516;10.528;2024-03-23T06:26:23;99891.50;;;5.21;100.00
76108;BME280;64834;52.516;10.528;2024-03-23T06:28:49;99881.94;;;5.20;100.00
76108;BME280;64834;52.516;10.528;2024-03-23T06:31:14;99885.66;;;5.23;100.00
76108;BME280;64834;52.516;10.528;2024-03-23T06:33:39;99874.38;;;5.23;100.00
76108;BME280;64834;52.516;10.528;2024-03-23T06:36:09;99872.66;;;5.36;100.00
76108;BME280;64834;52.516;10.528;2024-03-23T06:38:34;99872.41;;;5.47;100.00
76108;BME280;64834;52.516;10.528;2024-03-23T06:41:02;99867.94;;;5.44;100.00
76108;BME280;64834;52.516;10.528;2024-03-23T06:43:27;99873.41;;;5.49;100.00
76108;BME280;64834;52.516;10.528;2024-03-23T06:45:54;99872.19;;;5.57;100.00
76108;BME280;64834;52.516;10.528;2024-03-23T06:48:20;99868.09;;;5.60;100.00
76108;BME280;64834;52.516;10.528;2024-03-23T06:50:46;99861.66;;;5.68;100.00
76108;BME280;64834;52.516;10.528;2024-03-23T06:53:14;99870.34;;;5.69;100.00
76108;BME280;64834;52.516;10.528;2024-03-23T06:55:39;99865.06;;;5.67;100.00
76108;BME280;64834;52.516;10.528;2024-03-23T06:58:05;99869.44;;;5.68;100.00
76108;BME280;64834;52.516;10.528;2024-03-23T07:00:31;99869.81;;;5.75;100.00
76108;BME280;64834;52.516;10.528;2024-03-23T07:02:57;99882.59;;;5.72;100.00
76108;BME280;64834;52.516;10.528;2024-03-23T07:05:22;99881.63;;;5.69;100.00
76108;BME280;64834;52.516;10.528;2024-03-23T07:07:47;99882.41;;;5.68;100.00
76108;BME280;64834;52.516;10.528;2024-03-23T07:10:13;99886.63;;;5.66;100.00
76108;BME280;64834;52.516;10.528;2024-03-23T07:12:38;99883.78;;;5.77;100.00
76108;BME280;64834;52.516;10.528;2024-03-23T07:15:04;99883.78;;;5.77;100.00
76108;BME280;64834;52.516;10.528;2024-03-23T07:17:29;99884.16;;;5.83;100.00
76108;BME280;64834;52.516;10.528;2024-03-23T07:19:55;99888.75;;;5.87;100.00
76108;BME280;64834;52.516;10.528;2024-03-23T07:22:20;99891.44;;;5.88;100.00
76108;BME280;64834;52.516;10.528;2024-03-23T07:24:45;99886.84;;;5.98;100.00
76108;BME280;64834;52.516;10.528;2024-03-23T07:27:11;99890.34;;;5.98;100.00
76108;BME280;64834;52.516;10.528;2024-03-23T07:29:36;99884.13;;;5.96;100.00
76108;BME280;64834;52.516;10.528;2024-03-23T07:32:01;99889.53;;;5.99;100.00
76108;BME280;64834;52.516;10.528;2024-03-23T07:34:27;99885.91;;;5.97;100.00
76108;BME280;64834;52.516;10.528;2024-03-23T07:36:52;99889.63;;;5.87;100.00
76108;BME280;64834;52.516;10.528;2024-03-23T07:39:17;99895.56;;;5.85;100.00
76108;BME280;64834;52.516;10.528;2024-03-23T07:41:46;99890.38;;;5.85;100.00
76108;BME280;64834;52.516;10.528;2024-03-23T07:44:11;99888.44;;;5.95;100.00
76108;BME280;64834;52.516;10.528;2024-03-23T07:46:36;99892.94;;;5.98;100.00
76108;BME280;64834;52.516;10.528;2024-03-23T07:49:04;99890.94;;;5.94;100.00
76108;BME280;64834;52.516;10.528;2024-03-23T07:51:29;99890.72;;;6.04;100.00
76108;BME280;64834;52.516;10.528;2024-03-23T07:53:54;99889.16;;;6.08;100.00
76108;BME280;64834;52.516;10.528;2024-03-23T07:56:20;99889.91;;;6.05;100.00
76108;BME280;64834;52.516;10.528;2024-03-23T07:58:46;99893.94;;;6.15;100.00
76108;BME280;64834;52.516;10.528;2024-03-23T08:01:14;99885.06;;;6.11;100.00
76108;BME280;64834;52.516;10.528;2024-03-23T08:03:41;99878.78;;;6.08;100.00
76108;BME280;64834;52.516;10.528;2024-03-23T08:06:11;99886.41;;;6.19;100.00
76108;BME280;64834;52.516;10.528;2024-03-23T08:08:37;99890.00;;;6.21;100.00
76108;BME280;64834;52.516;10.528;2024-03-23T08:11:03;99889.56;;;6.29;100.00
76108;BME280;64834;52.516;10.528;2024-03-23T08:13:29;99890.84;;;6.35;100.00
76108;BME280;64834;52.516;10.528;2024-03-23T08:15:59;99887.94;;;6.45;100.00
76108;BME280;64834;52.516;10.528;2024-03-23T08:18:25;99885.63;;;6.35;100.00
76108;BME280;64834;52.516;10.528;2024-03-23T08:21:03;99885.78;;;6.53;100.00
76108;BME280;64834;52.516;10.528;2024-03-23T08:23:33;99885.88;;;6.69;100.00
76108;BME280;64834;52.516;10.528;2024-03-23T08:26:00;99885.38;;;6.60;100.00
76108;BME280;64834;52.516;10.528;2024-03-23T08:28:25;99895.31;;;6.67;100.00
76108;BME280;64834;52.516;10.528;2024-03-23T08:30:52;99898.88;;;6.69;100.00
76108;BME280;64834;52.516;10.528;2024-03-23T08:33:18;99893.84;;;6.72;100.00
76108;BME280;64834;52.516;10.528;2024-03-23T08:35:53;99894.06;;;6.61;100.00
76108;BME280;64834;52.516;10.528;2024-03-23T08:38:18;99893.69;;;6.69;100.00
76108;BME280;64834;52.516;10.528;2024-03-23T08:40:44;99887.22;;;6.78;100.00
76108;BME280;64834;52.516;10.528;2024-03-23T08:43:09;99888.84;;;6.75;100.00
76108;BME280;64834;52.516;10.528;2024-03-23T08:45:34;99884.63;;;6.78;100.00
76108;BME280;64834;52.516;10.528;2024-03-23T08:47:59;99872.69;;;6.81;100.00
76108;BME280;64834;52.516;10.528;2024-03-23T08:50:25;99873.41;;;6.79;100.00
76108;BME280;64834;52.516;10.528;2024-03-23T08:52:51;99884.25;;;6.71;100.00
76108;BME280;64834;52.516;10.528;2024-03-23T08:55:16;99880.69;;;6.69;100.00
76108;BME280;64834;52.516;10.528;2024-03-23T08:57:41;99885.88;;;6.69;100.00
76108;BME280;64834;52.516;10.528;2024-03-23T09:00:07;99876.84;;;6.63;100.00
76108;BME280;64834;52.516;10.528;2024-03-23T09:02:34;99877.56;;;6.60;100.00
76108;BME280;64834;52.516;10.528;2024-03-23T09:04:59;99882.47;;;6.70;100.00
76108;BME280;64834;52.516;10.528;2024-03-23T09:07:32;99878.59;;;6.79;100.00
76108;BME280;64834;52.516;10.528;2024-03-23T09:09:57;99882.00;;;6.78;100.00
76108;BME280;64834;52.516;10.528;2024-03-23T09:12:23;99872.44;;;6.76;100.00
76108;BME280;64834;52.516;10.528;2024-03-23T09:14:49;99877.09;;;6.82;100.00
76108;BME280;64834;52.516;10.528;2024-03-23T09:17:15;99884.34;;;6.88;100.00
76108;BME280;64834;52.516;10.528;2024-03-23T09:19:40;99883.53;;;6.89;100.00
76108;BME280;64834;52.516;10.528;2024-03-23T09:22:06;99877.44;;;6.88;100.00
76108;BME280;64834;52.516;10.528;2024-03-23T09:24:31;99881.91;;;6.91;100.00
76108;BME280;64834;52.516;10.528;2024-03-23T09:26:57;99882.25;;;6.97;100.00
76108;BME280;64834;52.516;10.528;2024-03-23T09:29:22;99884.66;;;7.09;100.00
76108;BME280;64834;52.516;10.528;2024-03-23T09:31:47;99888.06;;;7.08;100.00
76108;BME280;64834;52.516;10.528;2024-03-23T09:34:13;99880.06;;;7.19;100.00
76108;BME280;64834;52.516;10.528;2024-03-23T09:36:38;99878.88;;;6.98;100.00
76108;BME280;64834;52.516;10.528;2024-03-23T09:39:03;99892.75;;;6.98;100.00
76108;BME280;64834;52.516;10.528;2024-03-23T09:41:30;99882.88;;;7.08;100.00
76108;BME280;64834;52.516;10.528;2024-03-23T09:43:56;99887.31;;;7.10;100.00
76108;BME280;64834;52.516;10.528;2024-03-23T09:46:21;99882.34;;;6.98;100.00
76108;BME280;64834;52.516;10.528;2024-03-23T09:48:47;99892.53;;;7.10;100.00
76108;BME280;64834;52.516;10.528;2024-03-23T09:51:12;99889.16;;;7.11;100.00
76108;BME280;64834;52.516;10.528;2024-03-23T09:53:38;99880.13;;;7.21;100.00
76108;BME280;64834;52.516;10.528;2024-03-23T09:56:04;99877.06;;;7.28;100.00
76108;BME280;64834;52.516;10.528;2024-03-23T09:58:29;99877.66;;;7.39;100.00
76108;BME280;64834;52.516;10.528;2024-03-23T10:00:54;99870.25;;;7.30;100.00
76108;BME280;64834;52.516;10.528;2024-03-23T10:03:20;99875.78;;;7.36;100.00
76108;BME280;64834;52.516;10.528;2024-03-23T10:05:45;99877.56;;;7.37;100.00
76108;BME280;64834;52.516;10.528;2024-03-23T10:10:39;99873.41;;;7.41;100.00
76108;BME280;64834;52.516;10.528;2024-03-23T10:13:04;99873.41;;;7.41;100.00
76108;BME280;64834;52.516;10.528;2024-03-23T10:15:30;99877.69;;;7.55;100.00
76108;BME280;64834;52.516;10.528;2024-03-23T10:18:06;99869.00;;;7.54;99.96
76108;BME280;64834;52.516;10.528;2024-03-23T10:23:39;99850.72;;;8.20;96.83
76108;BME280;64834;52.516;10.528;2024-03-23T10:26:20;99854.72;;;8.13;89.96
76108;BME280;64834;52.516;10.528;2024-03-23T10:29:01;99858.34;;;8.33;93.15
76108;BME280;64834;52.516;10.528;2024-03-23T10:31:27;99831.97;;;8.27;86.25
76108;BME280;64834;52.516;10.528;2024-03-23T10:33:53;99857.03;;;8.41;88.55
76108;BME280;64834;52.516;10.528;2024-03-23T10:36:20;99854.91;;;8.34;84.70
76108;BME280;64834;52.516;10.528;2024-03-23T10:38:46;99854.28;;;8.22;87.33
76108;BME280;64834;52.516;10.528;2024-03-23T10:41:12;99861.22;;;8.21;89.39
76108;BME280;64834;52.516;10.528;2024-03-23T10:43:38;99859.84;;;8.11;89.11
76108;BME280;64834;52.516;10.528;2024-03-23T10:46:04;99854.25;;;7.88;90.47
76108;BME280;64834;52.516;10.528;2024-03-23T10:48:33;99865.94;;;7.47;92.36
76108;BME280;64834;52.516;10.528;2024-03-23T10:50:59;99856.97;;;7.25;89.66
76108;BME280;64834;52.516;10.528;2024-03-23T10:53:26;99848.22;;;7.09;84.31
76108;BME280;64834;52.516;10.528;2024-03-23T10:55:52;99855.97;;;7.07;90.14
76108;BME280;64834;52.516;10.528;2024-03-23T10:58:26;99870.94;;;6.96;93.25
76108;BME280;64834;52.516;10.528;2024-03-23T11:00:53;99862.22;;;6.80;92.06
76108;BME280;64834;52.516;10.528;2024-03-23T11:03:32;99862.44;;;6.99;92.52
76108;BME280;64834;52.516;10.528;2024-03-23T11:05:59;99859.16;;;7.34;89.90
76108;BME280;64834;52.516;10.528;2024-03-23T11:08:33;99865.06;;;7.46;82.35
76108;BME280;64834;52.516;10.528;2024-03-23T11:11:14;99862.13;;;7.40;83.61
76108;BME280;64834;52.516;10.528;2024-03-23T11:13:39;99864.78;;;7.25;83.96
76108;BME280;64834;52.516;10.528;2024-03-23T11:16:27;99868.91;;;7.22;86.87
76108;BME280;64834;52.516;10.528;2024-03-23T11:19:33;99873.47;;;7.26;89.45
76108;BME280;64834;52.516;10.528;2024-03-23T11:21:58;99871.66;;;7.56;90.22
76108;BME280;64834;52.516;10.528;2024-03-23T11:24:24;99860.75;;;7.96;90.38
76108;BME280;64834;52.516;10.528;2024-03-23T11:26:49;99847.97;;;8.34;89.83
76108;BME280;64834;52.516;10.528;2024-03-23T11:29:16;99851.03;;;8.78;89.65
76108;BME280;64834;52.516;10.528;2024-03-23T11:31:48;99854.72;;;8.81;85.27
76108;BME280;64834;52.516;10.528;2024-03-23T11:34:18;99838.00;;;8.96;89.65
76108;BME280;64834;52.516;10.528;2024-03-23T11:36:44;99849.44;;;9.35;86.90
76108;BME280;64834;52.516;10.528;2024-03-23T11:39:14;99866.63;;;9.12;86.92
76108;BME280;64834;52.516;10.528;2024-03-23T11:41:52;99900.41;;;7.74;90.16
76108;BME280;64834;52.516;10.528;2024-03-23T11:44:22;99912.06;;;6.58;95.00
76108;BME280;64834;52.516;10.528;2024-03-23T11:46:49;99904.31;;;5.87;98.98
76108;BME280;64834;52.516;10.528;2024-03-23T11:49:27;99908.97;;;5.64;100.00
76108;BME280;64834;52.516;10.528;2024-03-23T11:51:54;99930.66;;;5.52;100.00
76108;BME280;64834;52.516;10.528;2024-03-23T11:54:21;99927.28;;;5.53;100.00
76108;BME280;64834;52.516;10.528;2024-03-23T11:57:08;99928.44;;;5.17;100.00
76108;BME280;64834;52.516;10.528;2024-03-23T11:59:38;99905.72;;;4.99;100.00
76108;BME280;64834;52.516;10.528;2024-03-23T12:02:11;99913.00;;;4.92;100.00
76108;BME280;64834;52.516;10.528;2024-03-23T12:04:37;99910.41;;;4.92;100.00
76108;BME280;64834;52.516;10.528;2024-03-23T12:09:37;99897.75;;;5.09;100.00
76108;BME280;64834;52.516;10.528;2024-03-23T12:12:12;99880.53;;;5.25;100.00
76108;BME280;64834;52.516;10.528;2024-03-23T12:14:39;99890.28;;;5.42;100.00
76108;BME280;64834;52.516;10.528;2024-03-23T12:17:09;99882.47;;;5.55;100.00
76108;BME280;64834;52.516;10.528;2024-03-23T12:19:35;99890.63;;;5.61;100.00
76108;BME280;64834;52.516;10.528;2024-03-23T12:22:00;99889.13;;;5.65;100.00
76108;BME280;64834;52.516;10.528;2024-03-23T12:24:26;99897.91;;;5.95;100.00
76108;BME280;64834;52.516;10.528;2024-03-23T12:26:51;99902.22;;;5.94;100.00
76108;BME280;64834;52.516;10.528;2024-03-23T12:29:16;99896.06;;;6.07;100.00
76108;BME280;64834;52.516;10.528;2024-03-23T12:31:42;99906.81;;;5.99;100.00
76108;BME280;64834;52.516;10.528;2024-03-23T12:34:08;99908.88;;;6.04;100.00
76108;BME280;64834;52.516;10.528;2024-03-23T12:36:33;99913.97;;;6.03;100.00
76108;BME280;64834;52.516;10.528;2024-03-23T12:38:58;99908.75;;;6.03;100.00
76108;BME280;64834;52.516;10.528;2024-03-23T12:41:24;99913.81;;;5.86;100.00
76108;BME280;64834;52.516;10.528;2024-03-23T12:43:49;99907.28;;;5.65;100.00
76108;BME280;64834;52.516;10.528;2024-03-23T12:46:14;99893.53;;;5.53;100.00
76108;BME280;64834;52.516;10.528;2024-03-23T12:48:40;99887.63;;;5.68;100.00
76108;BME280;64834;52.516;10.528;2024-03-23T12:51:07;99896.28;;;5.69;100.00
76108;BME280;64834;52.516;10.528;2024-03-23T12:53:32;99877.28;;;5.55;100.00
76108;BME280;64834;52.516;10.528;2024-03-23T12:55:58;99883.59;;;5.74;100.00
76108;BME280;64834;52.516;10.528;2024-03-23T12:58:23;99880.56;;;5.94;100.00
76108;BME280;64834;52.516;10.528;2024-03-23T13:00:48;99875.13;;;6.04;100.00
76108;BME280;64834;52.516;10.528;2024-03-23T13:03:14;99888.31;;;6.52;100.00
76108;BME280;64834;52.516;10.528;2024-03-23T13:05:43;99885.72;;;6.66;100.00
76108;BME280;64834;52.516;10.528;2024-03-23T13:08:08;99890.56;;;6.45;100.00
76108;BME280;64834;52.516;10.528;2024-03-23T13:10:33;99888.31;;;6.52;100.00
76108;BME280;64834;52.516;10.528;2024-03-23T13:12:59;99890.19;;;6.39;100.00
76108;BME280;64834;52.516;10.528;2024-03-23T13:15:24;99885.72;;;6.37;100.00
76108;BME280;64834;52.516;10.528;2024-03-23T13:17:49;99883.47;;;6.28;100.00
76108;BME280;64834;52.516;10.528;2024-03-23T13:20:15;99886.25;;;6.46;100.00
76108;BME280;64834;52.516;10.528;2024-03-23T13:22:41;99883.19;;;6.83;100.00
76108;BME280;64834;52.516;10.528;2024-03-23T13:25:07;99896.69;;;7.07;100.00
76108;BME280;64834;52.516;10.528;2024-03-23T13:27:32;99880.88;;;7.18;99.11
76108;BME280;64834;52.516;10.528;2024-03-23T13:29:58;99877.19;;;7.15;95.60
76108;BME280;64834;52.516;10.528;2024-03-23T13:32:23;99874.44;;;7.12;97.28
76108;BME280;64834;52.516;10.528;2024-03-23T13:34:48;99883.41;;;7.02;98.02
76108;BME280;64834;52.516;10.528;2024-03-23T13:37:16;99880.66;;;6.99;100.00
76108;BME280;64834;52.516;10.528;2024-03-23T13:39:41;99899.13;;;6.89;98.34
76108;BME280;64834;52.516;10.528;2024-03-23T13:42:09;99887.22;;;6.92;99.51
76108;BME280;64834;52.516;10.528;2024-03-23T13:44:34;99887.91;;;7.05;100.00
76108;BME280;64834;52.516;10.528;2024-03-23T13:47:01;99887.16;;;7.07;100.00
76108;BME280;64834;52.516;10.528;2024-03-23T13:49:30;99885.06;;;7.16;98.89